createdAt,value
2018-02-10T00:01:02.825Z,-0.17
2018-02-10T00:03:28.862Z,-0.11
2018-02-10T00:05:54.861Z,-0.14
2018-02-10T00:08:20.928Z,-0.16
2018-02-10T00:10:46.987Z,-0.20
2018-02-10T00:13:13.018Z,-0.27
2018-02-10T00:15:39.054Z,-0.20
2018-02-10T00:18:05.096Z,-0.16
2018-02-10T00:20:31.116Z,-0.20
2018-02-10T00:22:57.086Z,-0.31
2018-02-10T00:25:23.094Z,-0.21
2018-02-10T00:27:49.128Z,-0.18
2018-02-10T00:30:15.223Z,-0.19
2018-02-10T00:32:41.214Z,-0.23
2018-02-10T00:35:07.267Z,-0.16
2018-02-10T00:37:33.241Z,-0.10
2018-02-10T00:39:59.205Z,-0.22
2018-02-10T00:42:25.286Z,-0.17
2018-02-10T00:44:51.304Z,-0.20
2018-02-10T00:47:17.302Z,-0.21
2018-02-10T00:49:43.353Z,-0.23
2018-02-10T00:52:09.394Z,-0.24
2018-02-10T00:54:35.410Z,-0.25
2018-02-10T00:57:01.398Z,-0.34
2018-02-10T00:59:27.342Z,-0.27
2018-02-10T01:01:53.357Z,-0.24
2018-02-10T01:04:19.357Z,-0.26
2018-02-10T01:06:45.365Z,-0.34
2018-02-10T01:09:11.365Z,-0.31
2018-02-10T01:11:37.432Z,-0.29
2018-02-10T01:14:03.433Z,-0.25
2018-02-10T01:16:29.393Z,-0.38
2018-02-10T01:18:55.397Z,-0.31
2018-02-10T01:21:21.437Z,-0.19
2018-02-10T01:23:47.487Z,-0.29
2018-02-10T01:26:13.497Z,-0.28
2018-02-10T01:28:39.450Z,-0.29
2018-02-10T01:31:05.444Z,-0.19
2018-02-10T01:33:31.445Z,-0.18
2018-02-10T01:35:57.473Z,-0.30
2018-02-10T01:38:23.485Z,-0.22
2018-02-10T01:40:49.508Z,-0.27
2018-02-10T01:43:15.464Z,-0.24
2018-02-10T01:45:41.517Z,-0.28
2018-02-10T01:48:07.490Z,-0.42
2018-02-10T01:50:33.488Z,-0.49
2018-02-10T01:52:59.513Z,-0.25
2018-02-10T01:55:25.634Z,-0.31
2018-02-10T01:57:51.659Z,-0.31
2018-02-10T02:00:17.645Z,-0.27
2018-02-10T02:02:43.660Z,-0.33
2018-02-10T02:05:09.663Z,-0.37
2018-02-10T02:07:35.656Z,-0.26
2018-02-10T02:10:01.741Z,-0.28
2018-02-10T02:12:27.725Z,-0.27
2018-02-10T02:14:54.033Z,-0.44
2018-02-10T02:17:20.036Z,-0.54
2018-02-10T02:19:45.985Z,-0.66
2018-02-10T02:22:11.977Z,-0.69
2018-02-10T02:24:37.961Z,-0.67
2018-02-10T02:27:03.992Z,-0.58
2018-02-10T02:29:29.986Z,-0.53
2018-02-10T02:31:56.009Z,-0.42
2018-02-10T02:34:22.317Z,-0.45
2018-02-10T02:36:48.485Z,-0.61
2018-02-10T02:39:14.552Z,-0.60
2018-02-10T02:41:40.616Z,-0.59
2018-02-10T02:44:06.619Z,-0.72
2018-02-10T02:46:32.553Z,-0.68
2018-02-10T02:48:58.544Z,-0.77
2018-02-10T02:51:24.560Z,-0.71
2018-02-10T02:53:50.570Z,-0.75
2018-02-10T02:56:16.615Z,-0.77
2018-02-10T02:58:42.661Z,-0.71
2018-02-10T03:01:08.669Z,-0.68
2018-02-10T03:03:34.657Z,-0.64
2018-02-10T03:06:00.681Z,-0.57
2018-02-10T03:08:26.669Z,-0.56
2018-02-10T03:10:53.564Z,-0.63
2018-02-10T03:13:19.639Z,-0.60
2018-02-10T03:15:45.647Z,-0.66
2018-02-10T03:18:11.640Z,-0.70
2018-02-10T03:20:37.728Z,-0.61
2018-02-10T03:23:03.728Z,-0.53
2018-02-10T03:25:29.736Z,-0.59
2018-02-10T03:27:56.025Z,-0.57
2018-02-10T03:30:22.007Z,-0.61
2018-02-10T03:32:48.014Z,-0.60
2018-02-10T03:35:14.065Z,-0.59
2018-02-10T03:37:40.144Z,-0.58
2018-02-10T03:40:06.102Z,-0.63
2018-02-10T03:42:31.981Z,-0.65
2018-02-10T03:44:57.999Z,-0.61
2018-02-10T03:47:24.068Z,-0.62
2018-02-10T03:49:50.101Z,-0.61
2018-02-10T03:52:16.111Z,-0.62
2018-02-10T03:54:42.187Z,-0.58
2018-02-10T03:57:08.212Z,-0.57
2018-02-10T03:59:34.232Z,-0.53
2018-02-10T04:02:00.256Z,-0.53
2018-02-10T04:04:26.233Z,-0.48
2018-02-10T04:06:52.290Z,-0.52
2018-02-10T04:09:18.300Z,-0.55
2018-02-10T04:11:44.392Z,-0.62
2018-02-10T04:14:10.409Z,-0.67
2018-02-10T04:16:36.432Z,-0.55
2018-02-10T04:19:02.464Z,-0.64
2018-02-10T04:21:28.466Z,-0.62
2018-02-10T04:23:54.484Z,-0.62
2018-02-10T04:26:20.494Z,-0.60
2018-02-10T04:28:46.509Z,-0.57
2018-02-10T04:31:12.456Z,-0.60
2018-02-10T04:33:38.459Z,-0.54
2018-02-10T04:36:04.488Z,-0.59
2018-02-10T04:38:30.537Z,-0.58
2018-02-10T04:40:56.538Z,-0.63
2018-02-10T04:43:22.652Z,-0.62
2018-02-10T04:45:48.710Z,-0.67
2018-02-10T04:48:14.776Z,-0.63
2018-02-10T04:50:40.780Z,-0.61
2018-02-10T04:53:06.798Z,-0.67
2018-02-10T04:55:32.803Z,-0.63
2018-02-10T04:57:59.154Z,-0.65
2018-02-10T05:00:25.144Z,-0.76
2018-02-10T05:02:51.100Z,-0.84
2018-02-10T05:05:17.106Z,-0.75
2018-02-10T05:07:43.119Z,-0.73
2018-02-10T05:10:09.145Z,-0.72
2018-02-10T05:12:35.248Z,-0.78
2018-02-10T05:15:01.361Z,-0.80
2018-02-10T05:17:27.313Z,-0.80
2018-02-10T05:19:53.312Z,-0.94
2018-02-10T05:22:19.336Z,-0.91
2018-02-10T05:24:45.328Z,-0.73
2018-02-10T05:27:11.349Z,-0.70
2018-02-10T05:29:37.369Z,-0.70
2018-02-10T05:32:03.364Z,-0.73
2018-02-10T05:34:29.408Z,-0.80
2018-02-10T05:36:55.358Z,-0.86
2018-02-10T05:39:21.384Z,-0.85
2018-02-10T05:41:47.397Z,-0.88
2018-02-10T05:44:13.421Z,-0.80
2018-02-10T05:46:39.427Z,-0.59
2018-02-10T05:49:05.380Z,-0.62
2018-02-10T05:51:31.370Z,-0.61
2018-02-10T05:53:57.390Z,-0.66
2018-02-10T05:56:23.429Z,-0.70
2018-02-10T05:58:49.413Z,-0.80
2018-02-10T06:01:15.456Z,-0.82
2018-02-10T06:03:41.430Z,-0.83
2018-02-10T06:06:07.416Z,-0.84
2018-02-10T06:08:33.677Z,-0.83
2018-02-10T06:10:59.670Z,-0.94
2018-02-10T06:13:25.661Z,-0.93
2018-02-10T06:15:51.691Z,-0.83
2018-02-10T06:18:17.753Z,-0.62
2018-02-10T06:20:43.785Z,-0.48
2018-02-10T06:23:09.757Z,-0.38
2018-02-10T06:25:35.761Z,-0.41
2018-02-10T06:28:01.801Z,-0.57
2018-02-10T06:30:27.801Z,-0.62
2018-02-10T06:32:53.838Z,-0.65
2018-02-10T06:35:19.863Z,-0.60
2018-02-10T06:37:45.889Z,-0.65
2018-02-10T06:40:11.871Z,-0.67
2018-02-10T06:42:37.909Z,-0.72
2018-02-10T06:45:04.010Z,-0.73
2018-02-10T06:47:29.986Z,-0.67
2018-02-10T06:49:56.247Z,-0.48
2018-02-10T06:52:22.255Z,-0.48
2018-02-10T06:54:48.300Z,-0.58
2018-02-10T06:57:14.317Z,-0.61
2018-02-10T06:59:40.317Z,-0.60
2018-02-10T07:02:06.304Z,-0.64
2018-02-10T07:04:32.325Z,-0.66
2018-02-10T07:06:58.339Z,-0.66
2018-02-10T07:09:24.666Z,-0.60
2018-02-10T07:11:50.692Z,-0.56
2018-02-10T07:14:16.673Z,-0.63
2018-02-10T07:16:42.797Z,-0.69
2018-02-10T07:19:08.754Z,-0.61
2018-02-10T07:21:34.786Z,-0.64
2018-02-10T07:24:00.773Z,-0.54
2018-02-10T07:26:26.809Z,-0.60
2018-02-10T07:28:52.736Z,-0.60
2018-02-10T07:31:18.713Z,-0.61
2018-02-10T07:33:44.724Z,-0.38
2018-02-10T07:36:10.748Z,-0.35
2018-02-10T07:38:36.844Z,-0.39
2018-02-10T07:41:09.974Z,-0.30
2018-02-10T07:43:36.036Z,-0.38
2018-02-10T07:46:01.993Z,-0.44
2018-02-10T07:48:27.967Z,-0.37
2018-02-10T07:50:53.985Z,-0.45
2018-02-10T07:53:20.005Z,-0.49
2018-02-10T07:55:46.000Z,-0.49
2018-02-10T07:58:12.029Z,-0.50
2018-02-10T08:00:38.093Z,-0.51
2018-02-10T08:03:04.484Z,-0.58
2018-02-10T08:05:30.564Z,-0.64
2018-02-10T08:07:56.518Z,-0.61
2018-02-10T08:10:22.508Z,-0.46
2018-02-10T08:12:48.672Z,-0.46
2018-02-10T08:15:14.676Z,-0.44
2018-02-10T08:17:40.690Z,-0.42
2018-02-10T08:20:06.749Z,-0.38
2018-02-10T08:22:33.090Z,-0.37
2018-02-10T08:24:59.124Z,-0.37
2018-02-10T08:27:25.160Z,-0.36
2018-02-10T08:29:51.176Z,-0.34
2018-02-10T08:32:17.176Z,-0.33
2018-02-10T08:34:43.181Z,-0.30
2018-02-10T08:37:09.259Z,-0.06
2018-02-10T08:39:35.251Z,0.06
2018-02-10T08:42:01.653Z,0.13
2018-02-10T08:44:27.674Z,0.10
2018-02-10T08:46:53.765Z,0.12
2018-02-10T08:49:19.786Z,0.11
2018-02-10T08:51:45.813Z,-0.05
2018-02-10T08:54:11.823Z,-0.11
2018-02-10T08:56:37.828Z,-0.12
2018-02-10T08:59:03.881Z,-0.13
2018-02-10T09:01:29.938Z,-0.05
2018-02-10T09:03:55.985Z,0.08
2018-02-10T09:06:22.081Z,0.13
2018-02-10T09:08:48.050Z,0.18
2018-02-10T09:11:14.094Z,0.16
2018-02-10T09:13:40.131Z,0.18
2018-02-10T09:16:06.153Z,0.07
2018-02-10T09:18:32.164Z,0.09
2018-02-10T09:20:58.173Z,0.18
2018-02-10T09:23:24.248Z,0.14
2018-02-10T09:25:50.221Z,0.21
2018-02-10T09:28:16.565Z,0.19
2018-02-10T09:30:42.553Z,0.25
2018-02-10T09:33:08.562Z,0.23
2018-02-10T09:35:34.632Z,0.23
2018-02-10T09:38:00.693Z,0.25
2018-02-10T09:40:26.729Z,0.27
2018-02-10T09:42:52.728Z,0.22
2018-02-10T09:45:18.970Z,0.21
2018-02-10T09:47:44.959Z,0.16
2018-02-10T09:50:11.057Z,0.23
2018-02-10T09:52:37.082Z,0.19
2018-02-10T09:55:03.107Z,0.23
2018-02-10T09:57:29.141Z,0.23
2018-02-10T09:59:55.137Z,0.32
2018-02-10T10:02:21.145Z,0.36
2018-02-10T10:04:47.148Z,0.41
2018-02-10T10:07:13.104Z,0.43
2018-02-10T10:09:39.133Z,0.24
2018-02-10T10:12:05.192Z,0.40
2018-02-10T10:14:31.196Z,0.44
2018-02-10T10:16:57.607Z,0.37
2018-02-10T10:19:23.605Z,0.37
2018-02-10T10:21:49.774Z,0.30
2018-02-10T10:24:15.770Z,0.44
2018-02-10T10:26:41.813Z,0.48
2018-02-10T10:29:07.863Z,0.42
2018-02-10T10:31:33.937Z,0.51
2018-02-10T10:33:59.927Z,0.49
2018-02-10T10:36:25.949Z,0.43
2018-02-10T10:38:51.963Z,0.38
2018-02-10T10:41:17.979Z,0.27
2018-02-10T10:43:44.010Z,0.32
2018-02-10T10:46:10.022Z,0.36
2018-02-10T10:48:36.103Z,0.39
2018-02-10T10:51:02.113Z,0.38
2018-02-10T10:53:28.301Z,0.39
2018-02-10T10:55:54.326Z,0.32
2018-02-10T10:58:20.377Z,0.27
2018-02-10T11:00:46.400Z,0.25
2018-02-10T11:03:12.412Z,0.47
2018-02-10T11:05:38.790Z,0.49
2018-02-10T11:08:04.938Z,0.53
2018-02-10T11:10:31.093Z,0.58
2018-02-10T11:12:57.109Z,0.50
2018-02-10T11:15:23.140Z,0.45
2018-02-10T11:17:49.533Z,0.56
2018-02-10T11:20:15.549Z,0.63
2018-02-10T11:22:41.544Z,0.63
2018-02-10T11:25:07.612Z,0.66
2018-02-10T11:27:33.668Z,0.65
2018-02-10T11:29:59.716Z,0.65
2018-02-10T11:32:25.744Z,0.65
2018-02-10T11:34:52.063Z,0.59
2018-02-10T11:37:18.078Z,0.52
2018-02-10T11:39:44.025Z,0.52
2018-02-10T11:42:10.238Z,0.56
2018-02-10T11:44:36.270Z,0.58
2018-02-10T11:47:02.585Z,0.61
2018-02-10T11:49:28.590Z,0.59
2018-02-10T11:51:54.736Z,0.62
2018-02-10T11:54:21.164Z,0.57
2018-02-10T11:56:47.175Z,0.54
2018-02-10T11:59:13.192Z,0.49
2018-02-10T12:01:39.398Z,0.61
2018-02-10T12:04:05.357Z,0.62
2018-02-10T12:06:31.413Z,0.69
2018-02-10T12:08:57.454Z,0.72
2018-02-10T12:11:24.185Z,0.72
2018-02-10T12:13:50.232Z,0.71
2018-02-10T12:16:16.258Z,0.80
2018-02-10T12:19:03.812Z,0.72
2018-02-10T12:21:29.833Z,0.81
2018-02-10T12:23:55.888Z,0.79
2018-02-10T12:26:21.934Z,0.85
2018-02-10T12:28:48.429Z,0.92
2018-02-10T12:31:14.480Z,0.90
2018-02-10T12:33:40.466Z,0.87
2018-02-10T12:36:06.591Z,0.94
2018-02-10T12:38:32.724Z,0.93
2018-02-10T12:40:59.643Z,0.99
2018-02-10T12:43:25.651Z,1.00
2018-02-10T12:45:52.115Z,0.99
2018-02-10T12:48:24.248Z,1.03
2018-02-10T12:50:50.259Z,1.03
2018-02-10T12:53:16.365Z,1.07
2018-02-10T12:55:42.449Z,1.10
2018-02-10T12:58:08.480Z,1.14
2018-02-10T13:00:34.489Z,1.12
2018-02-10T13:03:00.866Z,1.09
2018-02-10T13:05:26.981Z,1.11
2018-02-10T13:07:52.945Z,1.03
2018-02-10T13:10:18.990Z,1.02
2018-02-10T13:12:45.066Z,1.11
2018-02-10T13:15:11.106Z,1.28
2018-02-10T13:17:37.111Z,1.34
2018-02-10T13:20:03.670Z,1.27
2018-02-10T13:22:29.744Z,1.20
2018-02-10T13:24:55.769Z,1.30
2018-02-10T13:27:21.841Z,1.21
2018-02-10T13:29:47.870Z,1.26
2018-02-10T13:32:13.890Z,1.28
2018-02-10T13:34:39.978Z,1.21
2018-02-10T13:37:06.472Z,1.27
2018-02-10T13:39:33.232Z,1.21
2018-02-10T13:41:59.306Z,1.29
2018-02-10T13:44:25.404Z,1.29
2018-02-10T13:46:51.386Z,1.32
2018-02-10T13:49:17.501Z,1.23
2018-02-10T13:51:43.628Z,1.25
2018-02-10T13:54:09.675Z,1.15
2018-02-10T13:56:35.689Z,1.29
2018-02-10T13:59:02.111Z,1.25
2018-02-10T14:01:28.179Z,1.24
2018-02-10T14:03:54.145Z,1.24
2018-02-10T14:06:20.533Z,1.24
2018-02-10T14:08:51.580Z,1.19
2018-02-10T14:11:29.735Z,1.23
2018-02-10T14:13:55.833Z,1.24
2018-02-10T14:16:22.238Z,1.25
2018-02-10T14:18:48.347Z,1.25
2018-02-10T14:21:14.398Z,1.25
2018-02-10T14:23:40.538Z,1.29
2018-02-10T14:26:06.619Z,1.23
2018-02-10T14:28:32.730Z,1.22
2018-02-10T14:30:58.746Z,1.24
2018-02-10T14:33:25.099Z,1.16
2018-02-10T14:35:51.123Z,1.17
2018-02-10T14:38:17.201Z,1.23
2018-02-10T14:40:43.462Z,1.22
2018-02-10T14:43:09.522Z,1.20
2018-02-10T14:45:35.864Z,1.20
2018-02-10T14:48:01.865Z,1.28
2018-02-10T14:50:27.904Z,1.26
2018-02-10T14:52:53.939Z,1.34
2018-02-10T14:55:19.897Z,1.34
2018-02-10T14:57:46.401Z,1.35
2018-02-10T15:00:12.390Z,1.37
2018-02-10T15:02:38.404Z,1.34
2018-02-10T15:05:04.849Z,1.29
2018-02-10T15:07:30.901Z,1.35
2018-02-10T15:09:56.912Z,1.37
2018-02-10T15:12:22.940Z,1.32
2018-02-10T15:14:48.947Z,1.30
2018-02-10T15:17:15.021Z,1.32
2018-02-10T15:19:41.032Z,1.37
2018-02-10T15:22:07.100Z,1.38
2018-02-10T15:24:33.145Z,1.39
2018-02-10T15:26:59.613Z,1.40
2018-02-10T15:32:34.350Z,1.45
2018-02-10T15:35:01.080Z,1.43
2018-02-10T15:37:27.931Z,1.43
2018-02-10T15:39:53.968Z,1.46
2018-02-10T15:42:21.064Z,1.40
2018-02-10T15:44:47.185Z,1.38
2018-02-10T15:47:13.227Z,1.38
2018-02-10T15:49:39.652Z,1.40
2018-02-10T15:52:05.679Z,1.34
2018-02-10T15:54:31.691Z,1.38
2018-02-10T15:56:57.747Z,1.41
2018-02-10T15:59:23.755Z,1.42
2018-02-10T16:01:49.862Z,1.38
2018-02-10T16:04:15.844Z,1.38
2018-02-10T16:06:42.246Z,1.30
2018-02-10T16:09:08.238Z,1.36
2018-02-10T16:11:34.233Z,1.28
2018-02-10T16:14:00.289Z,1.32
2018-02-10T16:16:26.290Z,1.29
2018-02-10T16:18:52.345Z,1.29
2018-02-10T16:21:18.421Z,1.28
2018-02-10T16:23:44.762Z,1.36
2018-02-10T16:26:10.726Z,1.39
2018-02-10T16:28:36.758Z,1.37
2018-02-10T16:31:03.019Z,1.40
2018-02-10T16:33:29.082Z,1.34
2018-02-10T16:35:55.536Z,1.32
2018-02-10T16:38:21.552Z,1.37
2018-02-10T16:40:47.538Z,1.36
2018-02-10T16:43:13.712Z,1.31
2018-02-10T16:45:39.776Z,1.37
2018-02-10T16:48:06.126Z,1.30
2018-02-10T16:50:32.096Z,1.33
2018-02-10T16:52:58.508Z,1.32
2018-02-10T16:55:24.510Z,1.35
2018-02-10T16:57:50.497Z,1.38
2018-02-10T17:00:16.496Z,1.38
2018-02-10T17:02:42.540Z,1.39
2018-02-10T17:05:08.570Z,1.37
2018-02-10T17:07:34.568Z,1.35
2018-02-10T17:10:00.900Z,1.31
2018-02-10T17:12:26.914Z,1.32
2018-02-10T17:14:53.232Z,1.24
2018-02-10T17:17:19.291Z,1.27
2018-02-10T17:19:45.338Z,1.27
2018-02-10T17:22:11.530Z,1.29
2018-02-10T17:24:37.650Z,1.28
2018-02-10T17:27:03.682Z,1.24
2018-02-10T17:29:30.070Z,1.29
2018-02-10T17:31:56.110Z,1.30
2018-02-10T17:34:22.095Z,1.28
2018-02-10T17:36:48.111Z,1.33
2018-02-10T17:39:14.456Z,1.32
2018-02-10T17:41:40.494Z,1.32
2018-02-10T17:44:06.570Z,1.29
2018-02-10T17:46:32.625Z,1.28
2018-02-10T17:48:58.644Z,1.26
2018-02-10T17:51:24.658Z,1.26
2018-02-10T17:53:50.646Z,1.26
2018-02-10T17:56:17.112Z,1.26
2018-02-10T17:58:43.171Z,1.25
2018-02-10T18:01:09.240Z,1.27
2018-02-10T18:03:35.270Z,1.22
2018-02-10T18:06:01.357Z,1.09
2018-02-10T18:08:27.397Z,1.03
2018-02-10T18:10:53.418Z,1.20
2018-02-10T18:13:19.461Z,1.29
2018-02-10T18:15:45.492Z,1.10
2018-02-10T18:18:11.851Z,1.15
2018-02-10T18:20:37.985Z,1.13
2018-02-10T18:23:04.062Z,1.32
2018-02-10T18:25:30.107Z,1.30
2018-02-10T18:27:56.090Z,1.37
2018-02-10T18:30:22.140Z,1.33
2018-02-10T18:32:48.184Z,1.28
2018-02-10T18:35:14.558Z,1.25
2018-02-10T18:37:40.572Z,1.26
2018-02-10T18:40:06.632Z,1.22
2018-02-10T18:42:32.669Z,1.21
2018-02-10T18:44:58.637Z,1.22
2018-02-10T18:47:24.742Z,1.24
2018-02-10T18:49:50.778Z,1.23
2018-02-10T18:52:17.241Z,1.23
2018-02-10T18:54:43.269Z,1.17
2018-02-10T18:57:09.341Z,1.16
2018-02-10T18:59:35.366Z,1.11
2018-02-10T19:02:01.413Z,1.06
2018-02-10T19:04:27.435Z,1.12
2018-02-10T19:06:53.455Z,1.15
2018-02-10T19:09:19.483Z,1.19
2018-02-10T19:11:45.548Z,1.22
2018-02-10T19:14:12.165Z,1.21
2018-02-10T19:16:38.174Z,1.17
2018-02-10T19:19:04.193Z,1.02
2018-02-10T19:21:30.311Z,1.14
2018-02-10T19:23:56.341Z,1.13
2018-02-10T19:26:22.361Z,1.10
2018-02-10T19:28:48.354Z,1.12
2018-02-10T19:31:14.684Z,1.09
2018-02-10T19:33:40.681Z,1.11
2018-02-10T19:36:06.718Z,1.15
2018-02-10T19:38:32.751Z,1.07
2018-02-10T19:40:58.810Z,1.00
2018-02-10T19:43:25.108Z,1.07
2018-02-10T19:45:51.144Z,1.05
2018-02-10T19:48:17.181Z,1.06
2018-02-10T19:50:43.286Z,1.04
2018-02-10T19:53:09.325Z,1.06
2018-02-10T19:55:35.309Z,1.02
2018-02-10T19:58:01.730Z,1.02
2018-02-10T20:00:27.789Z,1.04
2018-02-10T20:02:53.802Z,1.05
2018-02-10T20:05:20.229Z,1.04
2018-02-10T20:07:46.330Z,1.04
2018-02-10T20:10:12.322Z,1.07
2018-02-10T20:12:38.338Z,1.04
2018-02-10T20:15:04.438Z,1.05
2018-02-10T20:17:30.481Z,1.06
2018-02-10T20:20:11.178Z,1.10
2018-02-10T20:22:37.248Z,1.07
2018-02-10T20:25:03.532Z,1.11
2018-02-10T20:27:29.546Z,1.05
2018-02-10T20:29:55.643Z,1.09
2018-02-10T20:32:21.650Z,1.06
2018-02-10T20:34:47.689Z,1.07
2018-02-10T20:37:15.162Z,1.06
2018-02-10T20:39:41.241Z,1.03
2018-02-10T20:42:07.605Z,1.00
2018-02-10T20:44:33.688Z,1.00
2018-02-10T20:46:59.761Z,0.99
2018-02-10T20:49:25.817Z,1.04
2018-02-10T20:51:51.825Z,1.01
2018-02-10T20:54:17.854Z,0.98
2018-02-10T20:56:43.873Z,0.99
2018-02-10T20:59:10.316Z,0.98
2018-02-10T21:01:36.345Z,0.97
2018-02-10T21:04:02.347Z,0.98
2018-02-10T21:06:28.403Z,0.96
2018-02-10T21:08:54.734Z,0.97
2018-02-10T21:11:21.150Z,0.94
2018-02-10T21:13:47.189Z,0.94
2018-02-10T21:16:13.211Z,0.94
2018-02-10T21:18:39.249Z,0.94
2018-02-10T21:21:05.288Z,0.97
2018-02-10T21:23:31.313Z,0.92
2018-02-10T21:25:57.348Z,0.84
2018-02-10T21:28:23.362Z,0.88
2018-02-10T21:30:49.443Z,0.96
2018-02-10T21:33:15.869Z,0.92
2018-02-10T21:35:41.938Z,0.93
2018-02-10T21:38:08.001Z,0.93
2018-02-10T21:40:34.129Z,0.93
2018-02-10T21:43:00.182Z,0.93
2018-02-10T21:45:26.622Z,0.94
2018-02-10T21:47:52.640Z,0.97
2018-02-10T21:50:18.666Z,0.97
2018-02-10T21:52:44.687Z,0.92
2018-02-10T21:55:10.748Z,0.91
2018-02-10T21:57:37.161Z,0.91
2018-02-10T22:00:03.470Z,0.92
2018-02-10T22:02:29.488Z,0.91
2018-02-10T22:04:55.529Z,0.90
2018-02-10T22:07:22.478Z,0.89
2018-02-10T22:09:48.533Z,0.84
2018-02-10T22:12:16.000Z,0.82
2018-02-10T22:14:43.222Z,0.82
2018-02-10T22:17:09.232Z,0.85
2018-02-10T22:19:35.253Z,0.83
2018-02-10T22:22:01.269Z,0.83
2018-02-10T22:24:27.280Z,0.83
2018-02-10T22:26:53.672Z,0.88
2018-02-10T22:29:19.771Z,0.85
2018-02-10T22:31:45.864Z,0.85
2018-02-10T22:34:11.885Z,0.83
2018-02-10T22:36:37.988Z,0.85
2018-02-10T22:39:04.531Z,0.87
2018-02-10T22:41:30.511Z,0.89
2018-02-10T22:43:56.536Z,0.90
2018-02-10T22:46:22.572Z,0.94
2018-02-10T22:48:48.569Z,0.94
2018-02-10T22:51:14.908Z,0.94
2018-02-10T22:53:41.013Z,0.89
2018-02-10T22:56:07.116Z,0.89
2018-02-10T22:58:33.124Z,0.93
2018-02-10T23:01:05.163Z,0.95
2018-02-10T23:03:31.246Z,0.90
2018-02-10T23:05:57.276Z,0.88
2018-02-10T23:08:23.764Z,0.86
2018-02-10T23:10:49.837Z,0.89
2018-02-10T23:13:15.884Z,0.86
2018-02-10T23:15:42.152Z,0.85
2018-02-10T23:18:08.162Z,0.89
2018-02-10T23:20:34.196Z,0.90
2018-02-10T23:23:00.292Z,0.89
2018-02-10T23:25:26.280Z,0.92
2018-02-10T23:27:52.696Z,0.87
2018-02-10T23:30:18.727Z,0.91
2018-02-10T23:32:51.654Z,0.91
2018-02-10T23:35:29.681Z,0.89
2018-02-10T23:37:55.693Z,0.87
2018-02-10T23:40:21.722Z,0.89
2018-02-10T23:42:47.761Z,0.82
2018-02-10T23:45:14.328Z,0.92
2018-02-10T23:47:40.369Z,0.85
2018-02-10T23:50:06.375Z,0.92
2018-02-10T23:52:32.389Z,0.85
2018-02-10T23:54:58.392Z,0.82
2018-02-10T23:57:24.422Z,0.81
2018-02-10T23:59:50.441Z,0.81
